createdAt,value
2023-07-17T00:01:01.298Z,6.93
2023-07-17T00:03:30.140Z,5.68
2023-07-17T00:05:58.939Z,4.22
2023-07-17T00:08:25.904Z,5.70
2023-07-17T00:10:53.201Z,7.38
2023-07-17T00:13:20.407Z,7.80
2023-07-17T00:15:47.305Z,7.47
2023-07-17T00:18:14.658Z,5.70
2023-07-17T00:20:42.109Z,6.25
2023-07-17T00:23:10.211Z,8.77
2023-07-17T00:25:36.893Z,9.27
2023-07-17T00:28:04.127Z,7.88
2023-07-17T00:30:31.245Z,6.47
2023-07-17T00:32:57.885Z,5.65
2023-07-17T00:35:24.782Z,6.65
2023-07-17T00:37:51.373Z,4.97
2023-07-17T00:40:18.064Z,8.90
2023-07-17T00:42:44.692Z,6.88
2023-07-17T00:45:11.527Z,6.70
2023-07-17T00:47:38.768Z,7.80
2023-07-17T00:50:06.377Z,6.40
2023-07-17T00:52:33.460Z,8.35
2023-07-17T00:55:00.449Z,6.70
2023-07-17T00:57:27.886Z,5.85
2023-07-17T00:59:54.665Z,8.77
2023-07-17T01:02:23.727Z,7.43
2023-07-17T01:04:50.999Z,7.10
2023-07-17T01:07:18.094Z,7.82
2023-07-17T01:09:44.870Z,6.45
2023-07-17T01:12:12.821Z,8.85
2023-07-17T01:14:40.774Z,7.35
2023-07-17T01:19:35.483Z,6.55
2023-07-17T01:22:24.680Z,10.80
2023-07-17T01:24:51.628Z,7.47
2023-07-17T01:27:19.604Z,5.20
2023-07-17T01:29:46.535Z,5.85
2023-07-17T01:32:13.972Z,6.53
2023-07-17T01:34:42.689Z,6.97
2023-07-17T01:37:10.168Z,5.85
2023-07-17T01:39:36.807Z,4.03
2023-07-17T01:42:03.551Z,7.50
2023-07-17T01:44:31.640Z,6.93
2023-07-17T01:46:58.710Z,5.80
2023-07-17T01:49:25.422Z,8.32
2023-07-17T01:51:52.053Z,9.05
2023-07-17T01:54:18.683Z,5.60
2023-07-17T01:56:45.505Z,6.47
2023-07-17T01:59:12.344Z,6.70
2023-07-17T02:01:41.429Z,8.65
2023-07-17T02:04:08.675Z,4.78
2023-07-17T02:06:35.499Z,6.38
2023-07-17T02:09:05.688Z,6.38
2023-07-17T02:11:32.254Z,10.00
2023-07-17T02:13:59.119Z,5.07
2023-07-17T02:16:26.643Z,6.40
2023-07-17T02:18:54.808Z,5.28
2023-07-17T02:21:21.502Z,7.90
2023-07-17T02:23:48.493Z,6.15
2023-07-17T02:26:15.367Z,7.22
2023-07-17T02:28:42.108Z,11.65
2023-07-17T02:31:08.875Z,5.32
2023-07-17T02:33:35.636Z,5.00
2023-07-17T02:36:04.641Z,9.43
2023-07-17T02:38:31.306Z,7.05
2023-07-17T02:40:58.697Z,7.50
2023-07-17T02:43:25.543Z,6.70
2023-07-17T02:45:52.361Z,8.43
2023-07-17T02:48:19.647Z,10.00
2023-07-17T02:50:46.236Z,10.82
2023-07-17T02:53:12.878Z,11.10
2023-07-17T02:55:39.462Z,7.88
2023-07-17T02:58:06.654Z,7.50
2023-07-17T03:00:34.888Z,11.00
2023-07-17T03:03:02.021Z,10.13
2023-07-17T03:05:29.045Z,7.13
2023-07-17T03:07:56.168Z,6.93
2023-07-17T03:10:22.915Z,11.20
2023-07-17T03:12:49.553Z,12.38
2023-07-17T03:15:16.400Z,13.93
2023-07-17T03:17:43.407Z,6.82
2023-07-17T03:20:10.764Z,8.23
2023-07-17T03:22:38.575Z,14.07
2023-07-17T03:25:07.376Z,8.38
2023-07-17T03:27:34.538Z,10.25
2023-07-17T03:30:01.370Z,5.60
2023-07-17T03:32:32.604Z,5.55
2023-07-17T03:34:59.662Z,11.77
2023-07-17T03:37:26.806Z,8.35
2023-07-17T03:39:53.638Z,13.50
2023-07-17T03:42:20.261Z,8.15
2023-07-17T03:44:46.878Z,5.40
2023-07-17T03:47:13.581Z,11.30
2023-07-17T03:49:40.190Z,9.77
2023-07-17T03:52:07.443Z,8.57
2023-07-17T03:54:34.496Z,7.65
2023-07-17T03:57:01.102Z,11.02
2023-07-17T03:59:28.000Z,11.63
2023-07-17T04:01:54.633Z,8.95
2023-07-17T04:04:21.527Z,9.50
2023-07-17T04:06:48.825Z,11.77
2023-07-17T04:09:16.895Z,10.18
2023-07-17T04:14:14.529Z,7.85
2023-07-17T04:16:41.226Z,8.02
2023-07-17T04:19:07.873Z,9.15
2023-07-17T04:21:35.077Z,11.60
2023-07-17T04:24:02.228Z,14.25
2023-07-17T04:26:30.619Z,9.13
2023-07-17T04:28:57.547Z,10.65
2023-07-17T04:31:25.336Z,10.25
2023-07-17T04:33:52.253Z,10.25
2023-07-17T04:36:19.044Z,8.32
2023-07-17T04:38:45.883Z,6.07
2023-07-17T04:41:12.459Z,9.10
2023-07-17T04:43:40.310Z,10.32
2023-07-17T04:48:33.912Z,12.98
2023-07-17T04:51:00.989Z,7.25
2023-07-17T04:53:28.037Z,8.48
2023-07-17T04:55:54.861Z,10.25
2023-07-17T04:58:21.566Z,10.80
2023-07-17T05:00:48.621Z,13.70
2023-07-17T05:03:17.075Z,12.63
2023-07-17T05:05:51.596Z,9.52
2023-07-17T05:08:21.400Z,12.10
2023-07-17T05:10:59.760Z,11.75
2023-07-17T05:13:27.218Z,7.93
2023-07-17T05:15:54.636Z,10.77
2023-07-17T05:18:21.980Z,10.90
2023-07-17T05:20:51.336Z,11.80
2023-07-17T05:23:18.814Z,11.52
2023-07-17T05:25:57.737Z,12.95
2023-07-17T05:28:25.708Z,11.30
2023-07-17T05:30:53.803Z,9.70
2023-07-17T05:35:47.816Z,9.93
2023-07-17T05:38:14.771Z,10.50
2023-07-17T05:40:42.000Z,11.07
2023-07-17T05:43:10.381Z,12.85
2023-07-17T05:45:37.217Z,14.23
2023-07-17T05:48:05.931Z,14.75
2023-07-17T05:50:32.783Z,14.70
2023-07-17T05:52:59.487Z,9.85
2023-07-17T05:55:26.322Z,14.23
2023-07-17T05:57:53.067Z,13.85
2023-07-17T06:00:20.662Z,11.25
2023-07-17T06:02:48.487Z,13.43
2023-07-17T06:05:16.153Z,12.50
2023-07-17T06:07:43.135Z,12.10
2023-07-17T06:10:10.077Z,12.52
2023-07-17T06:12:36.785Z,14.73
2023-07-17T06:15:06.753Z,13.88
2023-07-17T06:17:33.956Z,17.83
2023-07-17T06:20:01.656Z,10.65
2023-07-17T06:22:28.273Z,10.25
2023-07-17T06:24:55.254Z,14.18
2023-07-17T06:27:21.898Z,10.50
2023-07-17T06:29:48.563Z,11.70
2023-07-17T06:32:15.267Z,13.50
2023-07-17T06:34:43.045Z,12.18
2023-07-17T06:37:10.124Z,12.20
2023-07-17T06:39:37.222Z,17.08
2023-07-17T06:42:05.892Z,11.02
2023-07-17T06:44:32.594Z,11.55
2023-07-17T06:46:59.237Z,12.27
2023-07-17T06:49:26.059Z,13.43
2023-07-17T06:51:53.026Z,13.50
2023-07-17T06:54:19.661Z,18.83
2023-07-17T06:56:47.106Z,10.98
2023-07-17T06:59:13.702Z,13.20
2023-07-17T07:01:40.258Z,11.50
2023-07-17T07:04:07.036Z,12.32
2023-07-17T07:06:34.086Z,12.13
2023-07-17T07:09:00.615Z,13.50
2023-07-17T07:11:27.247Z,9.25
2023-07-17T07:13:53.769Z,7.95
2023-07-17T07:16:20.612Z,8.40
2023-07-17T07:18:47.335Z,11.85
2023-07-17T07:21:14.066Z,8.85
2023-07-17T07:23:40.923Z,10.40
2023-07-17T07:26:07.379Z,6.03
2023-07-17T07:28:34.140Z,4.93
2023-07-17T07:31:01.859Z,6.65
2023-07-17T07:33:28.566Z,6.20
2023-07-17T07:35:55.394Z,6.80
2023-07-17T07:38:22.163Z,12.00
2023-07-17T07:40:49.288Z,6.65
2023-07-17T07:43:16.026Z,8.95
2023-07-17T07:45:43.930Z,9.43
2023-07-17T07:50:37.336Z,9.10
2023-07-17T07:53:04.264Z,6.50
2023-07-17T07:55:30.924Z,4.28
2023-07-17T07:57:57.832Z,8.40
2023-07-17T08:00:24.842Z,4.22
2023-07-17T08:02:51.574Z,6.35
2023-07-17T08:05:19.572Z,6.90
2023-07-17T08:07:46.039Z,7.07
2023-07-17T08:10:12.551Z,7.93
2023-07-17T08:12:39.060Z,6.47
2023-07-17T08:15:09.211Z,5.20
2023-07-17T08:17:36.202Z,6.75
2023-07-17T08:20:04.915Z,9.48
2023-07-17T08:22:31.471Z,7.00
2023-07-17T08:24:58.235Z,10.35
2023-07-17T08:27:24.856Z,4.28
2023-07-17T08:29:51.960Z,4.07
2023-07-17T08:32:18.492Z,6.57
2023-07-17T08:34:45.072Z,5.75
2023-07-17T08:37:11.624Z,5.22
2023-07-17T08:39:38.156Z,9.77
2023-07-17T08:42:04.820Z,7.18
2023-07-17T08:44:31.939Z,8.20
2023-07-17T08:47:01.582Z,6.80
2023-07-17T08:49:28.442Z,2.35
2023-07-17T08:51:56.023Z,3.15
2023-07-17T08:56:52.873Z,5.78
2023-07-17T08:59:21.418Z,7.88
2023-07-17T09:01:51.220Z,5.40
2023-07-17T09:04:18.055Z,5.10
2023-07-17T09:06:44.562Z,8.18
2023-07-17T09:09:11.190Z,3.92
2023-07-17T09:11:37.790Z,10.38
2023-07-17T09:14:07.966Z,4.57
2023-07-17T09:16:34.736Z,7.72
2023-07-17T09:19:02.606Z,4.68
2023-07-17T09:21:29.491Z,5.30
2023-07-17T09:23:58.323Z,4.68
2023-07-17T09:26:26.541Z,3.03
2023-07-17T09:28:57.997Z,9.60
2023-07-17T09:31:28.651Z,3.38
2023-07-17T09:33:56.833Z,5.60
2023-07-17T09:36:24.061Z,4.00
2023-07-17T09:38:55.655Z,3.88
2023-07-17T09:41:26.791Z,5.18
2023-07-17T09:43:55.547Z,4.43
2023-07-17T09:46:22.145Z,7.90
2023-07-17T09:48:50.817Z,5.85
2023-07-17T09:51:19.171Z,6.35
2023-07-17T09:53:46.800Z,5.95
2023-07-17T09:56:16.630Z,4.15
2023-07-17T09:58:47.863Z,3.67
2023-07-17T10:01:24.287Z,3.25
2023-07-17T10:03:51.768Z,4.30
2023-07-17T10:06:20.433Z,3.03
2023-07-17T10:08:51.805Z,6.32
2023-07-17T10:11:19.626Z,5.95
2023-07-17T10:13:48.820Z,5.18
2023-07-17T10:16:20.212Z,4.65
2023-07-17T10:18:55.965Z,8.80
2023-07-17T10:21:23.695Z,4.70
2023-07-17T10:23:51.562Z,6.20
2023-07-17T10:26:21.221Z,4.05
2023-07-17T10:28:54.010Z,2.70
2023-07-17T10:31:25.671Z,3.13
2023-07-17T10:33:53.235Z,6.57
2023-07-17T10:36:37.126Z,6.10
2023-07-17T10:39:05.654Z,5.05
2023-07-17T10:41:32.758Z,2.42
2023-07-17T10:44:17.966Z,6.03
2023-07-17T10:46:47.319Z,3.38
2023-07-17T10:49:16.454Z,5.40
2023-07-17T10:51:51.846Z,5.95
2023-07-17T10:54:20.021Z,4.55
2023-07-17T10:56:49.126Z,5.65
2023-07-17T10:59:18.587Z,3.00
2023-07-17T11:01:46.982Z,5.55
2023-07-17T11:04:13.942Z,6.47
2023-07-17T11:06:41.259Z,6.07
2023-07-17T11:09:08.886Z,4.10
2023-07-17T11:11:35.934Z,3.00
2023-07-17T11:14:03.861Z,2.40
2023-07-17T11:16:30.383Z,2.83
2023-07-17T11:18:57.600Z,5.28
2023-07-17T11:21:26.843Z,5.10
2023-07-17T11:23:55.061Z,3.38
2023-07-17T11:26:25.577Z,8.55
2023-07-17T11:28:53.206Z,6.38
2023-07-17T11:31:24.628Z,5.00
2023-07-17T11:33:57.059Z,3.65
2023-07-17T11:36:23.782Z,6.25
2023-07-17T11:38:50.614Z,5.85
2023-07-17T11:41:17.512Z,6.68
2023-07-17T11:43:44.234Z,10.23
2023-07-17T11:46:12.296Z,5.90
2023-07-17T11:48:44.640Z,4.25
2023-07-17T11:51:11.245Z,5.85
2023-07-17T11:53:39.141Z,3.42
2023-07-17T11:58:39.399Z,3.80
2023-07-17T12:01:07.798Z,5.90
2023-07-17T12:03:35.145Z,5.45
2023-07-17T12:06:02.192Z,4.82
2023-07-17T12:08:29.052Z,7.32
2023-07-17T12:10:56.097Z,7.32
2023-07-17T12:13:22.718Z,5.10
2023-07-17T12:15:49.459Z,6.07
2023-07-17T12:18:16.085Z,6.72
2023-07-17T12:20:42.672Z,6.75
2023-07-17T12:23:10.169Z,7.07
2023-07-17T12:28:07.764Z,4.07
2023-07-17T12:30:34.863Z,5.10
2023-07-17T12:33:02.256Z,6.32
2023-07-17T12:35:30.537Z,6.63
2023-07-17T12:38:00.754Z,5.60
2023-07-17T12:40:28.172Z,6.10
2023-07-17T12:42:55.263Z,4.82
2023-07-17T12:45:22.600Z,5.15
2023-07-17T12:47:49.606Z,6.80
2023-07-17T12:50:16.518Z,4.50
2023-07-17T12:52:43.354Z,4.88
2023-07-17T12:55:10.400Z,5.00
2023-07-17T12:57:41.352Z,5.03
2023-07-17T13:00:09.279Z,6.22
2023-07-17T13:02:35.937Z,6.45
2023-07-17T13:05:05.740Z,7.05
2023-07-17T13:07:32.295Z,6.60
2023-07-17T13:09:59.586Z,4.30
2023-07-17T13:12:37.927Z,7.32
2023-07-17T13:15:10.224Z,4.85
2023-07-17T13:17:45.289Z,7.18
2023-07-17T13:20:12.569Z,5.70
2023-07-17T13:22:39.263Z,5.47
2023-07-17T13:25:06.364Z,6.70
2023-07-17T13:27:32.931Z,5.78
2023-07-17T13:29:59.550Z,5.35
2023-07-17T13:32:26.259Z,4.20
2023-07-17T13:34:52.819Z,3.88
2023-07-17T13:37:19.321Z,5.30
2023-07-17T13:39:46.162Z,3.90
2023-07-17T13:42:12.695Z,6.22
2023-07-17T13:44:39.285Z,5.45
2023-07-17T13:47:06.165Z,5.15
2023-07-17T13:49:35.081Z,5.05
2023-07-17T13:52:01.761Z,3.67
2023-07-17T13:54:28.369Z,5.07
2023-07-17T13:59:24.736Z,5.90
2023-07-17T14:01:51.274Z,7.78
2023-07-17T14:04:18.157Z,5.28
2023-07-17T14:06:45.146Z,4.50
2023-07-17T14:09:11.774Z,10.95
2023-07-17T14:11:41.845Z,4.45
2023-07-17T14:14:08.430Z,5.13
2023-07-17T14:16:35.099Z,3.38
2023-07-17T14:19:01.746Z,3.95
2023-07-17T14:21:28.747Z,5.07
2023-07-17T14:23:55.627Z,5.93
2023-07-17T14:26:22.360Z,2.83
2023-07-17T14:28:49.265Z,5.97
2023-07-17T14:31:15.871Z,3.63
2023-07-17T14:33:42.503Z,4.78
2023-07-17T14:36:09.046Z,5.53
2023-07-17T14:38:37.814Z,4.38
2023-07-17T14:41:05.869Z,4.30
2023-07-17T14:43:37.024Z,3.42
2023-07-17T14:46:04.120Z,2.63
2023-07-17T14:48:32.608Z,5.05
2023-07-17T14:51:00.272Z,3.17
2023-07-17T14:53:28.443Z,7.70
2023-07-17T14:55:55.316Z,5.28
2023-07-17T14:58:22.770Z,3.90
2023-07-17T15:00:49.451Z,8.50
2023-07-17T15:03:16.228Z,8.07
2023-07-17T15:05:42.861Z,7.28
2023-07-17T15:08:09.616Z,5.18
2023-07-17T15:10:36.242Z,4.25
2023-07-17T15:13:05.593Z,7.78
2023-07-17T15:15:33.501Z,5.70
2023-07-17T15:18:00.337Z,5.43
2023-07-17T15:20:27.187Z,7.07
2023-07-17T15:22:54.176Z,8.20
2023-07-17T15:25:21.134Z,5.10
2023-07-17T15:27:48.226Z,6.95
2023-07-17T15:30:14.992Z,4.85
2023-07-17T15:32:44.280Z,6.20
2023-07-17T15:35:12.093Z,7.55
2023-07-17T15:37:39.062Z,8.07
2023-07-17T15:40:07.627Z,7.75
2023-07-17T15:42:34.679Z,8.23
2023-07-17T15:45:04.648Z,6.70
2023-07-17T15:47:31.338Z,4.32
2023-07-17T15:49:58.518Z,5.03
2023-07-17T15:52:25.220Z,4.25
2023-07-17T15:54:52.261Z,4.43
2023-07-17T15:57:19.021Z,3.15
2023-07-17T15:59:45.664Z,6.57
2023-07-17T16:02:12.182Z,2.67
2023-07-17T16:04:38.802Z,4.60
2023-07-17T16:07:05.926Z,3.72
2023-07-17T16:09:32.590Z,6.00
2023-07-17T16:11:59.467Z,4.05
2023-07-17T16:14:26.095Z,3.70
2023-07-17T16:16:52.624Z,3.50
2023-07-17T16:19:19.220Z,6.10
2023-07-17T16:21:45.673Z,3.15
2023-07-17T16:24:12.439Z,5.32
2023-07-17T16:26:39.397Z,3.03
2023-07-17T16:29:06.734Z,5.25
2023-07-17T16:31:36.048Z,4.38
2023-07-17T16:34:04.874Z,4.22
2023-07-17T16:36:33.869Z,2.22
2023-07-17T16:39:00.477Z,3.60
2023-07-17T16:41:27.193Z,5.25
2023-07-17T16:43:53.688Z,4.25
2023-07-17T16:46:20.683Z,4.53
2023-07-17T16:48:48.173Z,6.70
2023-07-17T16:51:14.733Z,8.02
2023-07-17T16:53:42.800Z,6.45
2023-07-17T16:56:09.667Z,4.80
2023-07-17T16:58:37.259Z,4.55
2023-07-17T17:01:04.318Z,4.95
2023-07-17T17:03:31.136Z,2.97
2023-07-17T17:05:57.749Z,2.13
2023-07-17T17:08:24.544Z,2.45
2023-07-17T17:10:51.850Z,4.05
2023-07-17T17:13:18.949Z,6.20
2023-07-17T17:15:46.203Z,5.85
2023-07-17T17:18:14.831Z,5.63
2023-07-17T17:20:41.641Z,2.83
2023-07-17T17:23:08.759Z,5.32
2023-07-17T17:25:40.464Z,4.05
2023-07-17T17:28:08.047Z,4.32
2023-07-17T17:30:35.170Z,2.85
2023-07-17T17:33:02.245Z,7.05
2023-07-17T17:35:28.892Z,5.13
2023-07-17T17:37:55.477Z,4.53
2023-07-17T17:40:22.178Z,5.50
2023-07-17T17:42:51.025Z,6.25
2023-07-17T17:45:17.623Z,4.97
2023-07-17T17:47:44.255Z,4.75
2023-07-17T17:50:11.312Z,6.90
2023-07-17T17:52:37.836Z,3.28
2023-07-17T17:55:04.896Z,4.95
2023-07-17T17:57:31.673Z,2.95
2023-07-17T17:59:58.575Z,4.93
2023-07-17T18:02:25.239Z,5.93
2023-07-17T18:04:52.192Z,2.65
2023-07-17T18:07:18.976Z,6.18
2023-07-17T18:09:45.544Z,4.45
2023-07-17T18:12:12.123Z,5.55
2023-07-17T18:14:38.677Z,3.13
2023-07-17T18:17:06.581Z,4.32
2023-07-17T18:19:39.089Z,4.85
2023-07-17T18:22:07.556Z,5.20
2023-07-17T18:24:35.193Z,4.10
2023-07-17T18:29:29.930Z,4.72
2023-07-17T18:31:56.919Z,4.65
2023-07-17T18:34:23.805Z,5.22
2023-07-17T18:36:51.518Z,4.70
2023-07-17T18:39:18.107Z,4.00
2023-07-17T18:41:45.081Z,4.78
2023-07-17T18:44:11.653Z,3.17
2023-07-17T18:46:39.380Z,7.55
2023-07-17T18:49:06.113Z,6.15
2023-07-17T18:51:35.158Z,5.57
2023-07-17T18:54:02.023Z,6.00
2023-07-17T18:56:29.021Z,5.20
2023-07-17T18:58:57.138Z,2.85
2023-07-17T19:01:27.159Z,4.85
2023-07-17T19:03:54.043Z,6.60
2023-07-17T19:06:21.169Z,5.80
2023-07-17T19:08:51.507Z,5.38
2023-07-17T19:11:19.435Z,8.45
2023-07-17T19:13:47.126Z,3.63
2023-07-17T19:16:13.820Z,8.30
2023-07-17T19:18:40.943Z,9.45
2023-07-17T19:21:07.748Z,4.72
2023-07-17T19:23:36.498Z,2.42
2023-07-17T19:26:05.314Z,4.93
2023-07-17T19:28:32.372Z,10.05
2023-07-17T19:30:59.941Z,6.40
2023-07-17T19:33:26.893Z,6.28
2023-07-17T19:35:53.542Z,8.95
2023-07-17T19:38:21.164Z,5.20
2023-07-17T19:40:48.041Z,7.20
2023-07-17T19:43:27.739Z,4.95
2023-07-17T19:45:56.144Z,6.75
2023-07-17T19:48:26.224Z,5.63
2023-07-17T19:50:52.746Z,4.72
2023-07-17T19:53:19.378Z,6.72
2023-07-17T19:55:46.103Z,7.47
2023-07-17T19:58:12.626Z,4.88
2023-07-17T20:00:39.205Z,7.68
2023-07-17T20:03:05.826Z,5.25
2023-07-17T20:05:32.652Z,4.78
2023-07-17T20:08:00.388Z,4.32
2023-07-17T20:10:26.989Z,6.07
2023-07-17T20:12:53.751Z,6.63
2023-07-17T20:15:22.459Z,4.05
2023-07-17T20:17:51.172Z,6.10
2023-07-17T20:20:19.377Z,6.88
2023-07-17T20:22:48.407Z,6.05
2023-07-17T20:25:15.212Z,12.63
2023-07-17T20:27:43.121Z,6.53
2023-07-17T20:30:11.814Z,7.80
2023-07-17T20:32:38.887Z,5.68
2023-07-17T20:35:25.263Z,7.22
2023-07-17T20:37:54.188Z,5.68
2023-07-17T20:40:24.475Z,7.75
2023-07-17T20:42:53.514Z,4.03
2023-07-17T20:45:32.861Z,6.28
2023-07-17T20:48:00.634Z,5.00
2023-07-17T20:50:38.895Z,7.55
2023-07-17T20:53:05.701Z,9.85
2023-07-17T20:55:35.769Z,7.68
2023-07-17T20:58:02.773Z,4.80
2023-07-17T21:00:29.696Z,9.13
2023-07-17T21:02:56.587Z,8.57
2023-07-17T21:05:25.240Z,5.50
2023-07-17T21:07:53.517Z,11.55
2023-07-17T21:10:20.346Z,6.00
2023-07-17T21:12:47.034Z,9.73
2023-07-17T21:15:13.874Z,9.60
2023-07-17T21:17:40.968Z,8.57
2023-07-17T21:20:08.629Z,12.95
2023-07-17T21:22:38.571Z,11.57
2023-07-17T21:25:05.900Z,7.60
2023-07-17T21:27:35.366Z,9.93
2023-07-17T21:30:04.577Z,11.48
2023-07-17T21:32:31.179Z,8.85
2023-07-17T21:34:57.973Z,6.95
2023-07-17T21:37:24.587Z,7.28
2023-07-17T21:39:51.198Z,7.90
2023-07-17T21:42:17.846Z,7.32
2023-07-17T21:44:44.351Z,7.55
2023-07-17T21:47:11.229Z,10.77
2023-07-17T21:49:39.106Z,12.20
2023-07-17T21:52:06.258Z,12.00
2023-07-17T21:54:33.271Z,5.80
2023-07-17T21:57:00.553Z,8.63
2023-07-17T21:59:27.070Z,10.15
2023-07-17T22:01:53.674Z,8.57
2023-07-17T22:04:21.344Z,7.65
2023-07-17T22:06:47.926Z,5.53
2023-07-17T22:09:15.104Z,10.85
2023-07-17T22:11:41.722Z,9.25
2023-07-17T22:14:08.567Z,7.30
2023-07-17T22:16:37.462Z,6.82
2023-07-17T22:19:04.136Z,8.98
2023-07-17T22:21:32.187Z,7.75
2023-07-17T22:23:58.769Z,13.63
2023-07-17T22:26:25.274Z,10.43
2023-07-17T22:28:52.328Z,10.15
2023-07-17T22:31:19.125Z,8.93
2023-07-17T22:33:45.846Z,6.82
2023-07-17T22:36:14.179Z,12.27
2023-07-17T22:38:40.739Z,12.05
2023-07-17T22:41:07.449Z,8.90
2023-07-17T22:43:34.209Z,8.15
2023-07-17T22:46:00.791Z,6.43
2023-07-17T22:48:29.108Z,7.50
2023-07-17T22:50:56.756Z,8.65
2023-07-17T22:53:23.996Z,6.13
2023-07-17T22:55:51.616Z,9.02
2023-07-17T22:58:18.348Z,3.70
2023-07-17T23:00:45.461Z,7.68
2023-07-17T23:03:12.983Z,8.55
2023-07-17T23:05:39.984Z,7.80
2023-07-17T23:08:08.789Z,6.65
2023-07-17T23:10:35.615Z,11.98
2023-07-17T23:13:03.452Z,6.97
2023-07-17T23:15:30.509Z,9.77
2023-07-17T23:17:57.200Z,6.10
2023-07-17T23:20:23.805Z,8.43
2023-07-17T23:22:50.961Z,6.80
2023-07-17T23:25:19.348Z,8.48
2023-07-17T23:27:45.994Z,8.68
2023-07-17T23:30:13.686Z,6.75
2023-07-17T23:32:41.015Z,8.75
2023-07-17T23:35:08.323Z,8.63
2023-07-17T23:37:34.883Z,9.45
2023-07-17T23:40:02.862Z,7.85
2023-07-17T23:44:59.713Z,6.68
2023-07-17T23:47:26.362Z,9.65
2023-07-17T23:49:53.346Z,7.25
2023-07-17T23:52:21.730Z,9.38
2023-07-17T23:54:50.449Z,6.43
2023-07-17T23:57:17.887Z,7.63
2023-07-17T23:59:45.041Z,10.20
